createdAt,value
2017-09-07T00:02:01.617Z,61.10
2017-09-07T00:04:32.525Z,61.20
2017-09-07T00:07:01.797Z,61.40
2017-09-07T00:09:33.624Z,61.50
2017-09-07T00:12:03.053Z,61.70
2017-09-07T00:14:32.419Z,61.70
2017-09-07T00:17:04.275Z,61.80
2017-09-07T00:19:34.253Z,61.90
2017-09-07T00:22:03.471Z,61.90
2017-09-07T00:24:32.862Z,62.30
2017-09-07T00:27:02.599Z,62.40
2017-09-07T00:29:37.603Z,62.30
2017-09-07T00:32:07.063Z,62.20
2017-09-07T00:34:37.839Z,62.50
2017-09-07T00:37:07.358Z,62.50
2017-09-07T00:39:36.848Z,62.30
2017-09-07T00:42:06.594Z,62.40
2017-09-07T00:44:36.106Z,62.40
2017-09-07T00:47:06.565Z,62.50
2017-09-07T00:49:36.855Z,62.90
2017-09-07T00:52:07.479Z,62.80
2017-09-07T00:54:38.169Z,62.90
2017-09-07T00:57:08.968Z,62.90
2017-09-07T00:59:39.489Z,63.00
2017-09-07T01:02:11.216Z,62.80
2017-09-07T01:04:44.505Z,62.80
2017-09-07T01:07:14.104Z,62.50
2017-09-07T01:09:43.468Z,62.50
2017-09-07T01:12:13.959Z,62.30
2017-09-07T01:14:43.183Z,62.30
2017-09-07T01:17:14.417Z,62.40
2017-09-07T01:19:43.799Z,62.40
2017-09-07T01:22:13.616Z,62.60
2017-09-07T01:24:44.336Z,62.90
2017-09-07T01:27:13.943Z,62.80
2017-09-07T01:29:43.799Z,63.00
2017-09-07T01:32:13.838Z,63.00
2017-09-07T01:34:44.248Z,63.00
2017-09-07T01:37:14.490Z,63.10
2017-09-07T01:39:45.315Z,63.50
2017-09-07T01:42:14.672Z,63.40
2017-09-07T01:44:43.996Z,63.60
2017-09-07T01:47:14.409Z,63.80
2017-09-07T01:49:44.313Z,64.00
2017-09-07T01:52:13.514Z,64.20
2017-09-07T01:54:42.846Z,64.50
2017-09-07T01:57:12.918Z,65.10
2017-09-07T01:59:42.267Z,65.00
2017-09-07T02:02:12.356Z,65.20
2017-09-07T02:04:41.730Z,65.10
2017-09-07T02:07:10.965Z,65.20
2017-09-07T02:09:40.179Z,65.40
2017-09-07T02:12:09.362Z,65.40
2017-09-07T02:14:38.706Z,65.70
2017-09-07T02:17:08.495Z,65.80
2017-09-07T02:19:38.466Z,66.10
2017-09-07T02:22:07.615Z,66.10
2017-09-07T02:24:37.691Z,65.90
2017-09-07T02:27:06.914Z,65.90
2017-09-07T02:29:36.871Z,66.10
2017-09-07T02:32:06.244Z,66.10
2017-09-07T02:34:35.455Z,66.00
2017-09-07T02:37:05.435Z,66.30
2017-09-07T02:39:34.718Z,66.30
2017-09-07T02:42:04.365Z,66.20
2017-09-07T02:44:34.327Z,66.20
2017-09-07T02:47:03.491Z,66.20
2017-09-07T02:49:33.388Z,66.20
2017-09-07T02:52:03.497Z,66.20
2017-09-07T02:54:32.730Z,66.20
2017-09-07T02:57:02.734Z,66.40
2017-09-07T02:59:33.250Z,66.40
2017-09-07T03:02:02.494Z,66.40
2017-09-07T03:04:31.719Z,66.20
2017-09-07T03:07:01.290Z,66.20
2017-09-07T03:09:31.292Z,66.50
2017-09-07T03:12:00.591Z,66.60
2017-09-07T03:14:30.651Z,66.20
2017-09-07T03:17:00.287Z,66.10
2017-09-07T03:19:29.479Z,66.30
2017-09-07T03:21:58.656Z,66.20
2017-09-07T03:24:27.882Z,66.30
2017-09-07T03:26:57.174Z,66.40
2017-09-07T03:29:26.355Z,66.80
2017-09-07T03:31:55.545Z,66.70
2017-09-07T03:34:25.595Z,66.60
2017-09-07T03:36:54.965Z,66.70
2017-09-07T03:39:25.109Z,66.70
2017-09-07T03:41:54.703Z,66.70
2017-09-07T03:44:23.903Z,66.60
2017-09-07T03:46:53.207Z,66.60
2017-09-07T03:49:22.478Z,66.60
2017-09-07T03:51:51.707Z,66.70
2017-09-07T03:54:21.411Z,67.00
2017-09-07T03:56:50.657Z,66.90
2017-09-07T03:59:20.635Z,67.00
2017-09-07T04:01:50.752Z,67.00
2017-09-07T04:04:20.068Z,67.40
2017-09-07T04:06:49.521Z,66.80
2017-09-07T04:09:18.883Z,66.90
2017-09-07T04:11:48.935Z,67.20
2017-09-07T04:14:18.219Z,67.20
2017-09-07T04:16:47.408Z,67.20
2017-09-07T04:19:16.698Z,67.10
2017-09-07T04:21:46.701Z,67.50
2017-09-07T04:24:16.080Z,67.50
2017-09-07T04:26:45.595Z,67.30
2017-09-07T04:29:14.972Z,67.80
2017-09-07T04:31:44.319Z,67.60
2017-09-07T04:34:13.651Z,67.60
2017-09-07T04:36:43.506Z,67.70
2017-09-07T04:39:12.936Z,67.70
2017-09-07T04:41:43.594Z,67.30
2017-09-07T04:44:13.683Z,68.00
2017-09-07T04:46:42.943Z,68.00
2017-09-07T04:49:12.151Z,67.90
2017-09-07T04:51:41.705Z,68.30
2017-09-07T04:54:11.249Z,68.10
2017-09-07T04:56:40.540Z,68.20
2017-09-07T04:59:10.229Z,68.30
2017-09-07T05:01:40.367Z,68.70
2017-09-07T05:04:09.880Z,68.70
2017-09-07T05:06:39.131Z,68.70
2017-09-07T05:09:08.927Z,68.90
2017-09-07T05:11:38.202Z,69.10
2017-09-07T05:14:07.660Z,69.20
2017-09-07T05:16:38.169Z,69.20
2017-09-07T05:19:07.527Z,69.20
2017-09-07T05:21:38.166Z,69.20
2017-09-07T05:24:07.502Z,69.10
2017-09-07T05:26:40.504Z,69.30
2017-09-07T05:29:10.054Z,69.30
2017-09-07T05:31:39.340Z,69.50
2017-09-07T05:34:09.120Z,69.50
2017-09-07T05:36:39.272Z,69.50
2017-09-07T05:39:09.248Z,69.60
2017-09-07T05:41:39.501Z,69.50
2017-09-07T05:44:10.363Z,69.20
2017-09-07T05:46:40.054Z,69.20
2017-09-07T05:49:09.566Z,69.50
2017-09-07T05:51:38.844Z,69.40
2017-09-07T05:54:08.865Z,69.60
2017-09-07T05:56:39.322Z,69.70
2017-09-07T05:59:08.908Z,69.60
2017-09-07T06:01:38.967Z,69.70
2017-09-07T06:04:08.233Z,70.20
2017-09-07T06:06:37.727Z,70.10
2017-09-07T06:09:06.972Z,70.00
2017-09-07T06:11:36.451Z,70.20
2017-09-07T06:14:05.853Z,69.90
2017-09-07T06:16:35.373Z,69.40
2017-09-07T06:19:04.730Z,69.00
2017-09-07T06:21:34.754Z,69.50
2017-09-07T06:24:03.994Z,69.40
2017-09-07T06:26:33.246Z,69.40
2017-09-07T06:29:02.501Z,69.30
2017-09-07T06:31:32.225Z,69.20
2017-09-07T06:34:01.675Z,68.90
2017-09-07T06:36:31.810Z,68.50
2017-09-07T06:39:01.184Z,68.40
2017-09-07T06:41:31.274Z,68.40
2017-09-07T06:44:00.572Z,68.40
2017-09-07T06:46:30.308Z,68.30
2017-09-07T06:49:00.573Z,67.60
2017-09-07T06:51:30.912Z,67.50
2017-09-07T06:54:00.284Z,67.50
2017-09-07T06:56:29.608Z,67.50
2017-09-07T06:59:00.011Z,67.20
2017-09-07T07:01:29.503Z,67.10
2017-09-07T07:03:58.966Z,68.00
2017-09-07T07:06:29.031Z,67.00
2017-09-07T07:08:59.335Z,66.50
2017-09-07T07:11:28.755Z,66.50
2017-09-07T07:13:59.055Z,66.70
2017-09-07T07:16:29.210Z,66.80
2017-09-07T07:18:58.807Z,66.80
2017-09-07T07:21:28.905Z,67.00
2017-09-07T07:23:58.291Z,66.90
2017-09-07T07:26:27.979Z,66.60
2017-09-07T07:28:57.615Z,66.70
2017-09-07T07:31:27.910Z,65.70
2017-09-07T07:33:57.148Z,65.70
2017-09-07T07:36:26.448Z,64.80
2017-09-07T07:38:56.195Z,65.20
2017-09-07T07:41:25.611Z,65.30
2017-09-07T07:43:54.895Z,64.80
2017-09-07T07:46:24.152Z,64.60
2017-09-07T07:48:53.628Z,64.50
2017-09-07T07:51:23.743Z,64.50
2017-09-07T07:53:53.218Z,64.60
2017-09-07T07:56:23.285Z,63.20
2017-09-07T07:58:53.431Z,62.50
2017-09-07T08:01:23.127Z,62.50
2017-09-07T08:03:52.772Z,62.40
2017-09-07T08:06:23.119Z,62.60
2017-09-07T08:08:52.906Z,62.70
2017-09-07T08:11:23.047Z,63.50
2017-09-07T08:13:52.357Z,63.50
2017-09-07T08:16:22.068Z,63.00
2017-09-07T08:18:51.403Z,62.70
2017-09-07T08:21:20.868Z,62.70
2017-09-07T08:23:50.317Z,62.70
2017-09-07T08:26:19.811Z,62.40
2017-09-07T08:28:50.286Z,61.60
2017-09-07T08:31:19.975Z,61.30
2017-09-07T08:33:50.119Z,60.40
2017-09-07T08:36:19.811Z,60.40
2017-09-07T08:38:50.027Z,61.00
2017-09-07T08:41:19.626Z,61.50
2017-09-07T08:43:49.822Z,61.50
2017-09-07T08:46:19.112Z,61.70
2017-09-07T08:48:48.424Z,62.70
2017-09-07T08:51:17.959Z,62.50
2017-09-07T08:53:47.628Z,61.90
2017-09-07T08:56:17.006Z,61.50
2017-09-07T08:58:46.999Z,62.10
2017-09-07T09:01:17.164Z,62.20
2017-09-07T09:03:46.545Z,62.20
2017-09-07T09:06:15.746Z,62.30
2017-09-07T09:08:45.643Z,62.40
2017-09-07T09:11:15.999Z,62.20
2017-09-07T09:13:47.259Z,61.00
2017-09-07T09:16:17.098Z,60.90
2017-09-07T09:18:48.111Z,58.60
2017-09-07T09:21:42.635Z,58.60
2017-09-07T09:24:12.627Z,57.90
2017-09-07T09:26:43.153Z,57.20
2017-09-07T09:29:13.306Z,58.20
2017-09-07T09:31:43.406Z,58.30
2017-09-07T09:34:12.766Z,57.70
2017-09-07T09:36:42.556Z,57.20
2017-09-07T09:39:13.632Z,57.10
2017-09-07T09:41:42.944Z,57.10
2017-09-07T09:44:12.311Z,57.00
2017-09-07T09:46:42.536Z,56.60
2017-09-07T09:49:12.162Z,56.60
2017-09-07T09:51:41.697Z,56.50
2017-09-07T09:54:11.097Z,56.50
2017-09-07T09:56:40.467Z,56.20
2017-09-07T09:59:09.843Z,55.60
2017-09-07T10:01:40.268Z,56.60
2017-09-07T10:04:10.715Z,56.40
2017-09-07T10:06:39.941Z,56.30
2017-09-07T10:09:09.398Z,56.60
2017-09-07T10:11:40.565Z,53.30
2017-09-07T10:14:09.959Z,53.30
2017-09-07T10:16:39.979Z,48.60
2017-09-07T10:19:09.270Z,46.00
2017-09-07T10:21:39.142Z,45.20
2017-09-07T10:24:14.706Z,45.70
2017-09-07T10:26:44.133Z,47.40
2017-09-07T10:29:13.995Z,47.70
2017-09-07T10:31:43.469Z,47.10
2017-09-07T10:34:12.810Z,46.60
2017-09-07T10:36:42.217Z,46.70
2017-09-07T10:39:11.636Z,45.10
2017-09-07T10:41:41.075Z,45.10
2017-09-07T10:44:10.591Z,45.30
2017-09-07T10:46:40.083Z,43.50
2017-09-07T10:49:09.746Z,43.10
2017-09-07T10:51:39.444Z,44.30
2017-09-07T10:54:08.807Z,45.70
2017-09-07T10:56:38.941Z,46.30
2017-09-07T10:59:08.762Z,46.30
2017-09-07T11:01:38.041Z,47.20
2017-09-07T11:04:07.396Z,47.50
2017-09-07T11:06:36.645Z,47.00
2017-09-07T11:09:06.349Z,46.50
2017-09-07T11:11:36.086Z,46.30
2017-09-07T11:14:05.452Z,47.40
2017-09-07T11:16:34.844Z,47.50
2017-09-07T11:19:04.973Z,45.60
2017-09-07T11:21:34.627Z,45.60
2017-09-07T11:24:04.203Z,43.60
2017-09-07T11:26:34.084Z,42.20
2017-09-07T11:29:04.290Z,41.90
2017-09-07T11:31:33.796Z,41.90
2017-09-07T11:34:03.166Z,42.30
2017-09-07T11:36:33.032Z,43.40
2017-09-07T11:39:07.243Z,45.00
2017-09-07T11:41:47.900Z,44.90
2017-09-07T11:44:19.684Z,46.30
2017-09-07T11:46:49.808Z,44.60
2017-09-07T11:49:20.129Z,46.20
2017-09-07T11:51:50.453Z,46.50
2017-09-07T11:54:19.993Z,46.50
2017-09-07T11:56:49.869Z,46.50
2017-09-07T11:59:20.208Z,45.20
2017-09-07T12:01:50.896Z,44.30
2017-09-07T12:04:22.315Z,43.50
2017-09-07T12:06:57.244Z,43.40
2017-09-07T12:09:26.918Z,42.00
2017-09-07T12:11:57.393Z,41.60
2017-09-07T12:14:26.840Z,41.50
2017-09-07T12:16:57.103Z,41.60
2017-09-07T12:19:26.655Z,42.40
2017-09-07T12:22:24.157Z,43.30
2017-09-07T12:25:39.805Z,42.80
2017-09-07T12:28:10.046Z,43.10
2017-09-07T12:30:39.883Z,44.30
2017-09-07T12:33:10.398Z,44.60
2017-09-07T12:35:39.803Z,44.60
2017-09-07T12:38:09.902Z,45.70
2017-09-07T12:40:40.178Z,46.80
2017-09-07T12:43:09.938Z,46.90
2017-09-07T12:45:39.372Z,47.20
2017-09-07T12:48:10.145Z,47.10
2017-09-07T12:50:39.383Z,47.10
2017-09-07T12:53:10.567Z,44.90
2017-09-07T12:55:41.198Z,43.20
2017-09-07T12:58:10.907Z,43.20
2017-09-07T13:00:42.135Z,43.30
2017-09-07T13:03:12.046Z,43.30
2017-09-07T13:05:41.783Z,40.10
2017-09-07T13:08:12.941Z,37.80
2017-09-07T13:10:42.528Z,37.20
2017-09-07T13:13:11.935Z,37.90
2017-09-07T13:15:41.628Z,38.30
2017-09-07T13:18:11.142Z,38.90
2017-09-07T13:20:41.774Z,37.90
2017-09-07T13:23:15.898Z,37.30
2017-09-07T13:25:46.713Z,37.60
2017-09-07T13:28:17.493Z,39.80
2017-09-07T13:30:47.259Z,39.70
2017-09-07T13:33:17.483Z,39.90
2017-09-07T13:35:47.984Z,41.10
2017-09-07T13:38:17.824Z,41.10
2017-09-07T13:40:47.535Z,42.00
2017-09-07T13:43:17.957Z,42.00
2017-09-07T13:45:48.507Z,41.30
2017-09-07T13:48:19.113Z,42.00
2017-09-07T13:50:48.849Z,41.90
2017-09-07T13:53:19.358Z,44.50
2017-09-07T13:56:33.770Z,44.50
2017-09-07T13:59:04.642Z,45.30
2017-09-07T14:01:34.522Z,45.30
2017-09-07T14:04:05.317Z,45.50
2017-09-07T14:06:35.727Z,45.90
2017-09-07T14:09:05.947Z,45.80
2017-09-07T14:11:36.630Z,47.20
2017-09-07T14:14:06.200Z,47.20
2017-09-07T14:16:36.557Z,47.70
2017-09-07T14:19:07.238Z,47.90
2017-09-07T14:21:36.881Z,47.90
2017-09-07T14:24:06.604Z,48.50
2017-09-07T14:26:36.739Z,48.90
2017-09-07T14:29:08.061Z,49.20
2017-09-07T14:31:38.144Z,49.20
2017-09-07T14:34:07.828Z,49.20
2017-09-07T14:36:38.843Z,48.70
2017-09-07T14:39:08.558Z,49.50
2017-09-07T14:41:38.784Z,49.20
2017-09-07T14:44:08.998Z,49.30
2017-09-07T14:46:39.317Z,49.60
2017-09-07T14:49:09.542Z,50.40
2017-09-07T14:51:39.908Z,50.80
2017-09-07T14:54:09.546Z,51.20
2017-09-07T14:56:39.003Z,51.90
2017-09-07T14:59:10.960Z,51.10
2017-09-07T15:01:40.623Z,51.20
2017-09-07T15:04:12.765Z,51.70
2017-09-07T15:06:42.602Z,53.70
2017-09-07T15:09:13.603Z,53.40
2017-09-07T15:11:42.959Z,53.30
2017-09-07T15:14:12.374Z,53.30
2017-09-07T15:16:42.876Z,53.90
2017-09-07T15:19:53.086Z,54.40
2017-09-07T15:22:23.324Z,54.90
2017-09-07T15:24:52.921Z,55.10
2017-09-07T15:27:22.583Z,55.10
2017-09-07T15:29:55.596Z,55.00
2017-09-07T15:32:25.507Z,55.00
2017-09-07T15:34:58.404Z,55.00
2017-09-07T15:37:29.352Z,55.20
2017-09-07T15:42:35.651Z,54.60
2017-09-07T15:45:05.288Z,54.50
2017-09-07T15:47:36.140Z,53.90
2017-09-07T15:50:05.759Z,53.80
2017-09-07T15:52:35.667Z,54.00
2017-09-07T15:55:05.208Z,53.60
2017-09-07T15:57:35.043Z,53.70
2017-09-07T16:00:05.614Z,53.80
2017-09-07T16:02:35.449Z,53.80
2017-09-07T16:05:04.907Z,53.70
2017-09-07T16:07:35.556Z,53.90
2017-09-07T16:10:05.676Z,53.90
2017-09-07T16:12:35.200Z,53.90
2017-09-07T16:15:05.305Z,53.50
2017-09-07T16:17:35.017Z,53.90
2017-09-07T16:20:06.826Z,54.10
2017-09-07T16:23:09.232Z,54.00
2017-09-07T16:25:43.829Z,54.50
2017-09-07T16:28:14.722Z,54.50
2017-09-07T16:30:46.922Z,54.90
2017-09-07T16:33:17.419Z,55.30
2017-09-07T16:38:38.451Z,55.50
2017-09-07T16:41:09.770Z,55.90
2017-09-07T16:43:49.820Z,55.80
2017-09-07T16:46:21.411Z,56.10
2017-09-07T16:52:13.248Z,55.60
2017-09-07T16:54:45.089Z,55.50
2017-09-07T16:57:15.243Z,55.70
2017-09-07T16:59:50.912Z,55.40
2017-09-07T17:02:21.895Z,55.70
2017-09-07T17:04:59.351Z,55.50
2017-09-07T17:07:29.404Z,55.50
2017-09-07T17:09:59.312Z,55.40
2017-09-07T17:12:30.928Z,55.20
2017-09-07T17:15:01.123Z,55.30
2017-09-07T17:17:33.107Z,55.70
2017-09-07T17:20:05.308Z,55.50
2017-09-07T17:22:35.951Z,55.70
2017-09-07T17:25:21.025Z,55.70
2017-09-07T17:27:51.685Z,55.70
2017-09-07T17:30:22.060Z,55.90
2017-09-07T17:32:51.739Z,56.20
2017-09-07T17:35:22.453Z,56.10
2017-09-07T17:37:54.303Z,56.10
2017-09-07T17:40:27.111Z,56.40
2017-09-07T17:43:04.898Z,56.50
2017-09-07T17:48:45.393Z,56.80
2017-09-07T17:51:15.406Z,56.90
2017-09-07T17:53:46.054Z,57.30
2017-09-07T17:56:23.771Z,57.30
2017-09-07T17:58:54.781Z,58.00
2017-09-07T18:01:26.108Z,57.70
2017-09-07T18:04:08.450Z,57.70
2017-09-07T18:06:39.688Z,58.20
2017-09-07T18:09:11.664Z,58.10
2017-09-07T18:11:45.332Z,58.30
2017-09-07T18:14:15.498Z,58.30
2017-09-07T18:16:47.305Z,58.40
2017-09-07T18:19:17.548Z,58.60
2017-09-07T18:21:47.753Z,58.50
2017-09-07T18:24:17.381Z,58.70
2017-09-07T18:26:47.867Z,58.80
2017-09-07T18:29:19.142Z,58.70
2017-09-07T19:11:27.526Z,63.60
2017-09-07T19:13:58.152Z,64.30
2017-09-07T19:16:28.429Z,64.70
2017-09-07T19:18:59.640Z,65.20
2017-09-07T19:21:29.473Z,65.20
2017-09-07T19:23:59.180Z,65.10
2017-09-07T19:26:29.409Z,65.30
2017-09-07T19:28:59.519Z,65.10
2017-09-07T19:31:29.576Z,65.90
2017-09-07T19:33:59.149Z,65.20
2017-09-07T19:36:30.237Z,65.20
2017-09-07T19:39:01.278Z,65.30
2017-09-07T19:41:31.165Z,65.40
2017-09-07T19:44:01.109Z,65.40
2017-09-07T19:46:30.774Z,65.50
2017-09-07T19:49:00.281Z,66.40
2017-09-07T19:51:30.314Z,65.40
2017-09-07T19:54:00.050Z,65.40
2017-09-07T19:56:29.583Z,65.80
2017-09-07T19:58:59.591Z,65.70
2017-09-07T20:01:30.720Z,65.70
2017-09-07T20:04:02.889Z,65.60
2017-09-07T20:06:32.623Z,65.80
2017-09-07T20:09:04.821Z,65.50
2017-09-07T20:11:34.448Z,64.90
2017-09-07T20:14:11.125Z,64.80
2017-09-07T20:16:41.721Z,64.70
2017-09-07T20:19:11.669Z,64.20
2017-09-07T20:21:42.194Z,64.10
2017-09-07T20:24:12.632Z,64.00
2017-09-07T20:26:42.539Z,64.40
2017-09-07T20:29:30.768Z,64.10
2017-09-07T20:32:02.396Z,64.40
2017-09-07T20:34:33.584Z,64.50
2017-09-07T20:37:05.034Z,64.00
2017-09-07T20:39:34.634Z,64.60
2017-09-07T20:42:04.995Z,64.20
2017-09-07T20:44:35.084Z,64.30
2017-09-07T20:47:04.789Z,64.00
2017-09-07T20:49:41.467Z,63.90
2017-09-07T20:52:48.923Z,63.90
2017-09-07T20:55:19.635Z,63.70
2017-09-07T20:57:49.060Z,63.70
2017-09-07T21:00:23.158Z,63.40
2017-09-07T21:02:53.138Z,63.40
2017-09-07T21:05:27.926Z,63.40
2017-09-07T21:07:57.417Z,63.50
2017-09-07T21:10:27.644Z,63.50
2017-09-07T21:13:00.165Z,63.50
2017-09-07T21:15:40.717Z,64.10
2017-09-07T21:18:23.255Z,64.10
2017-09-07T21:20:52.780Z,64.10
2017-09-07T21:23:24.173Z,64.40
2017-09-07T21:26:24.519Z,64.40
2017-09-07T21:28:55.097Z,64.60
2017-09-07T21:31:25.263Z,65.00
2017-09-07T21:33:57.685Z,64.80
2017-09-07T21:36:28.251Z,64.70
2017-09-07T21:38:58.434Z,64.80
2017-09-07T21:41:27.914Z,65.10
2017-09-07T21:44:02.540Z,65.10
2017-09-07T21:46:33.966Z,65.60
2017-09-07T21:49:04.991Z,65.30
2017-09-07T21:51:35.890Z,65.50
2017-09-07T21:54:06.048Z,65.50
2017-09-07T21:56:35.784Z,65.50
2017-09-07T21:59:07.276Z,65.60
2017-09-07T22:01:36.672Z,65.50
2017-09-07T22:04:06.179Z,65.50
2017-09-07T22:06:36.698Z,65.10
2017-09-07T22:09:14.498Z,65.00
2017-09-07T22:11:45.235Z,64.70
2017-09-07T22:14:18.721Z,64.70
2017-09-07T22:16:48.325Z,64.70
2017-09-07T22:22:35.111Z,63.90
2017-09-07T22:25:08.894Z,63.60
2017-09-07T22:27:39.399Z,63.50
2017-09-07T22:30:09.254Z,63.00
2017-09-07T22:32:42.972Z,62.60
2017-09-07T22:35:12.936Z,62.80
2017-09-07T22:37:43.774Z,62.50
2017-09-07T22:40:15.684Z,63.00
2017-09-07T22:42:46.423Z,62.60
2017-09-07T22:45:17.304Z,62.30
2017-09-07T22:47:50.562Z,62.40
2017-09-07T22:50:22.264Z,62.50
2017-09-07T22:52:52.962Z,62.50
2017-09-07T22:55:26.438Z,62.50
2017-09-07T22:57:58.190Z,62.70
2017-09-07T23:00:29.703Z,63.00
2017-09-07T23:03:01.015Z,63.00
2017-09-07T23:05:32.878Z,63.10
2017-09-07T23:08:06.251Z,63.10
2017-09-07T23:10:39.537Z,63.30
2017-09-07T23:13:10.358Z,63.30
2017-09-07T23:15:40.950Z,63.40
2017-09-07T23:18:11.436Z,64.00
2017-09-07T23:20:41.159Z,64.00
2017-09-07T23:23:11.666Z,63.90
2017-09-07T23:25:42.304Z,63.70
2017-09-07T23:28:12.971Z,63.70
2017-09-07T23:30:43.025Z,64.00
2017-09-07T23:33:12.820Z,64.10
2017-09-07T23:35:42.995Z,64.20
2017-09-07T23:38:12.335Z,64.00
2017-09-07T23:40:42.076Z,63.80
2017-09-07T23:43:11.432Z,63.90
2017-09-07T23:45:40.725Z,63.90
2017-09-07T23:48:10.437Z,64.00
2017-09-07T23:50:39.618Z,64.10
2017-09-07T23:53:09.574Z,64.20
2017-09-07T23:55:39.774Z,64.30
2017-09-07T23:58:09.193Z,64.30
